createdAt,value
2023-02-19T00:00:58.095Z,999.6
2023-02-19T00:01:59.144Z,999.6
2023-02-19T00:03:00.081Z,999.7
2023-02-19T00:04:01.018Z,999.6
2023-02-19T00:05:02.090Z,999.6
2023-02-19T00:06:02.963Z,999.6
2023-02-19T00:07:04.075Z,999.6
2023-02-19T00:08:05.081Z,999.5
2023-02-19T00:09:06.094Z,999.5
2023-02-19T00:10:07.037Z,999.6
2023-02-19T00:11:08.312Z,999.5
2023-02-19T00:12:09.077Z,999.6
2023-02-19T00:13:10.111Z,999.5
2023-02-19T00:14:11.094Z,999.6
2023-02-19T00:15:12.083Z,999.5
2023-02-19T00:16:13.041Z,999.6
2023-02-19T00:17:14.057Z,999.6
2023-02-19T00:18:14.994Z,999.6
2023-02-19T00:19:16.240Z,999.5
2023-02-19T00:20:18.060Z,999.5
2023-02-19T00:21:19.063Z,999.5
2023-02-19T00:22:20.013Z,999.5
2023-02-19T00:23:21.016Z,999.5
2023-02-19T00:24:22.092Z,999.5
2023-02-19T00:25:23.012Z,999.5
2023-02-19T00:26:24.013Z,999.5
2023-02-19T00:27:24.979Z,999.4
2023-02-19T00:28:25.895Z,999.4
2023-02-19T00:29:27.094Z,999.5
2023-02-19T00:30:28.061Z,999.5
2023-02-19T00:31:30.856Z,999.4
2023-02-19T00:32:30.058Z,999.4
2023-02-19T00:33:31.058Z,999.4
2023-02-19T00:34:32.042Z,999.4
2023-02-19T00:35:33.083Z,999.4
2023-02-19T00:36:34.140Z,999.5
2023-02-19T00:37:35.037Z,999.4
2023-02-19T00:38:36.036Z,999.4
2023-02-19T00:39:37.058Z,999.4
2023-02-19T00:40:37.999Z,999.5
2023-02-19T00:41:39.096Z,999.4
2023-02-19T00:42:40.076Z,999.4
2023-02-19T00:43:41.017Z,999.4
2023-02-19T00:44:42.076Z,999.4
2023-02-19T00:45:43.049Z,999.4
2023-02-19T00:46:44.163Z,999.5
2023-02-19T00:47:45.130Z,999.4
2023-02-19T00:48:46.052Z,999.4
2023-02-19T00:49:47.079Z,999.4
2023-02-19T00:50:49.078Z,999.4
2023-02-19T00:51:50.041Z,999.4
2023-02-19T00:52:51.020Z,999.4
2023-02-19T00:53:52.078Z,999.4
2023-02-19T00:54:53.026Z,999.4
2023-02-19T00:55:54.058Z,999.4
2023-02-19T00:56:55.102Z,999.4
2023-02-19T00:57:56.101Z,999.4
2023-02-19T00:58:57.101Z,999.4
2023-02-19T00:59:58.058Z,999.4
2023-02-19T01:01:18.351Z,999.4
2023-02-19T01:02:19.079Z,999.4
2023-02-19T01:03:20.073Z,999.4
2023-02-19T01:04:21.107Z,999.3
2023-02-19T01:05:22.021Z,999.3
2023-02-19T01:06:23.079Z,999.3
2023-02-19T01:07:24.084Z,999.2
2023-02-19T01:08:25.056Z,999.2
2023-02-19T01:09:26.013Z,999.2
2023-02-19T01:10:27.067Z,999.2
2023-02-19T01:11:28.035Z,999.1
2023-02-19T01:12:29.071Z,999.1
2023-02-19T01:13:30.061Z,999.1
2023-02-19T01:14:31.108Z,999.1
2023-02-19T01:15:32.085Z,999.1
2023-02-19T01:16:33.119Z,999.1
2023-02-19T01:17:34.072Z,999
2023-02-19T01:18:35.086Z,999.1
2023-02-19T01:19:36.294Z,999
2023-02-19T01:20:38.094Z,999
2023-02-19T01:21:39.202Z,999
2023-02-19T01:22:40.073Z,999
2023-02-19T01:23:41.093Z,999
2023-02-19T01:24:42.084Z,999
2023-02-19T01:25:43.003Z,999
2023-02-19T01:26:44.083Z,999
2023-02-19T01:27:45.079Z,999
2023-02-19T01:28:46.036Z,999
2023-02-19T01:29:47.054Z,998.9
2023-02-19T01:30:48.060Z,999
2023-02-19T01:31:49.192Z,998.9
2023-02-19T01:32:49.996Z,999
2023-02-19T01:33:51.112Z,999
2023-02-19T01:34:52.061Z,999
2023-02-19T01:35:53.121Z,998.9
2023-02-19T01:36:54.071Z,998.9
2023-02-19T01:37:55.073Z,998.9
2023-02-19T01:38:56.019Z,999
2023-02-19T01:39:57.052Z,999
2023-02-19T01:40:58.114Z,999
2023-02-19T01:41:59.074Z,999
2023-02-19T01:43:00.160Z,999
2023-02-19T01:44:01.045Z,999
2023-02-19T01:45:02.097Z,999
2023-02-19T01:46:03.082Z,998.9
2023-02-19T01:47:04.093Z,998.9
2023-02-19T01:48:05.093Z,998.9
2023-02-19T01:49:06.096Z,998.9
2023-02-19T01:50:07.161Z,998.8
2023-02-19T01:51:08.598Z,998.8
2023-02-19T01:52:09.154Z,998.8
2023-02-19T01:53:11.236Z,998.7
2023-02-19T01:54:13.138Z,998.7
2023-02-19T01:55:14.094Z,998.7
2023-02-19T01:56:15.068Z,998.7
2023-02-19T01:57:16.216Z,998.8
2023-02-19T01:58:18.141Z,998.7
2023-02-19T01:59:19.122Z,998.6
2023-02-19T02:00:20.036Z,998.6
2023-02-19T02:01:21.056Z,998.6
2023-02-19T02:02:22.042Z,998.6
2023-02-19T02:06:32.242Z,998.5
2023-02-19T02:07:33.040Z,998.5
2023-02-19T02:08:34.056Z,998.5
2023-02-19T02:09:35.121Z,998.4
2023-02-19T02:10:36.083Z,998.5
2023-02-19T02:11:37.103Z,998.4
2023-02-19T02:12:38.061Z,998.4
2023-02-19T02:13:39.122Z,998.4
2023-02-19T02:14:40.035Z,998.4
2023-02-19T02:15:41.026Z,998.3
2023-02-19T02:16:42.076Z,998.3
2023-02-19T02:17:43.083Z,998.3
2023-02-19T02:18:44.143Z,998.4
2023-02-19T02:19:45.124Z,998.3
2023-02-19T02:20:46.162Z,998.3
2023-02-19T02:21:47.228Z,998.3
2023-02-19T02:22:48.043Z,998.3
2023-02-19T02:23:49.144Z,998.3
2023-02-19T02:24:50.120Z,998.3
2023-02-19T02:25:51.072Z,998.2
2023-02-19T02:26:52.044Z,998.2
2023-02-19T02:27:53.125Z,998.2
2023-02-19T02:28:54.039Z,998.1
2023-02-19T02:29:55.129Z,998.1
2023-02-19T02:30:56.126Z,998.1
2023-02-19T02:31:57.228Z,998.1
2023-02-19T02:32:58.084Z,998.2
2023-02-19T02:33:59.132Z,998.1
2023-02-19T02:35:00.145Z,998.2
2023-02-19T02:36:01.124Z,998.1
2023-02-19T02:37:02.170Z,998.2
2023-02-19T02:38:03.118Z,998.2
2023-02-19T02:39:04.165Z,998.1
2023-02-19T02:40:05.054Z,998.1
2023-02-19T02:41:06.064Z,998.1
2023-02-19T02:42:07.130Z,998.1
2023-02-19T02:43:08.149Z,998.2
2023-02-19T02:44:09.124Z,998.1
2023-02-19T02:45:10.129Z,998.1
2023-02-19T02:46:11.027Z,998.1
2023-02-19T02:47:12.011Z,998.2
2023-02-19T02:48:13.091Z,998.1
2023-02-19T02:49:14.074Z,998.1
2023-02-19T02:50:15.079Z,998.1
2023-02-19T02:51:16.097Z,998.2
2023-02-19T02:52:17.125Z,998.2
2023-02-19T02:53:18.108Z,998.2
2023-02-19T02:54:19.091Z,998.2
2023-02-19T02:55:20.028Z,998.1
2023-02-19T02:56:21.123Z,998
2023-02-19T02:57:22.163Z,998.1
2023-02-19T02:58:23.166Z,998.1
2023-02-19T02:59:24.044Z,998.1
2023-02-19T03:00:25.104Z,998.1
2023-02-19T03:01:26.193Z,998.1
2023-02-19T03:02:27.129Z,998
2023-02-19T03:03:28.045Z,998
2023-02-19T03:04:29.122Z,998
2023-02-19T03:05:30.123Z,998
2023-02-19T03:06:31.090Z,997.9
2023-02-19T03:07:32.042Z,998
2023-02-19T03:08:33.017Z,997.9
2023-02-19T03:09:34.104Z,997.9
2023-02-19T03:10:35.150Z,997.9
2023-02-19T03:11:36.104Z,997.9
2023-02-19T03:12:37.168Z,998
2023-02-19T03:13:38.083Z,997.9
2023-02-19T03:14:39.106Z,997.9
2023-02-19T03:15:40.127Z,997.9
2023-02-19T03:16:42.878Z,997.9
2023-02-19T03:17:42.043Z,997.9
2023-02-19T03:18:43.114Z,997.9
2023-02-19T03:19:44.128Z,997.9
2023-02-19T03:20:45.103Z,997.9
2023-02-19T03:21:46.102Z,997.9
2023-02-19T03:22:47.129Z,997.9
2023-02-19T03:23:48.182Z,997.9
2023-02-19T03:24:49.126Z,997.9
2023-02-19T03:25:50.121Z,997.9
2023-02-19T03:26:51.122Z,997.9
2023-02-19T03:27:52.081Z,997.9
2023-02-19T03:28:53.100Z,997.9
2023-02-19T03:29:54.172Z,997.8
2023-02-19T03:30:55.243Z,997.8
2023-02-19T03:31:56.195Z,997.8
2023-02-19T03:32:57.094Z,997.8
2023-02-19T03:33:58.138Z,997.7
2023-02-19T03:34:59.264Z,997.7
2023-02-19T03:36:00.180Z,997.6
2023-02-19T03:37:01.124Z,997.6
2023-02-19T03:38:02.179Z,997.6
2023-02-19T03:39:03.127Z,997.6
2023-02-19T03:40:04.067Z,997.6
2023-02-19T03:41:05.360Z,997.5
2023-02-19T03:42:07.199Z,997.5
2023-02-19T03:43:08.165Z,997.5
2023-02-19T03:44:09.121Z,997.5
2023-02-19T03:45:10.146Z,997.5
2023-02-19T03:46:11.230Z,997.5
2023-02-19T03:47:12.099Z,997.5
2023-02-19T03:48:13.188Z,997.5
2023-02-19T03:49:14.143Z,997.5
2023-02-19T03:50:15.150Z,997.5
2023-02-19T03:51:16.111Z,997.5
2023-02-19T03:52:17.140Z,997.5
2023-02-19T03:53:18.088Z,997.6
2023-02-19T03:54:19.121Z,997.6
2023-02-19T03:55:20.141Z,997.6
2023-02-19T03:56:21.202Z,997.6
2023-02-19T03:57:22.104Z,997.6
2023-02-19T03:58:23.083Z,997.6
2023-02-19T03:59:24.101Z,997.6
2023-02-19T04:00:25.124Z,997.6
2023-02-19T04:01:26.139Z,997.6
2023-02-19T04:02:27.144Z,997.7
2023-02-19T04:03:28.129Z,997.7
2023-02-19T04:04:32.235Z,997.8
2023-02-19T04:05:33.221Z,997.7
2023-02-19T04:06:34.184Z,997.7
2023-02-19T04:07:35.289Z,997.7
2023-02-19T04:08:36.186Z,997.7
2023-02-19T04:09:37.145Z,997.6
2023-02-19T04:10:38.205Z,997.6
2023-02-19T04:11:40.208Z,997.6
2023-02-19T04:12:41.129Z,997.6
2023-02-19T04:13:42.186Z,997.6
2023-02-19T04:14:43.178Z,997.6
2023-02-19T04:15:44.346Z,997.6
2023-02-19T04:16:46.222Z,997.6
2023-02-19T04:17:47.272Z,997.6
2023-02-19T04:18:48.247Z,997.5
2023-02-19T04:19:49.174Z,997.6
2023-02-19T04:20:50.126Z,997.6
2023-02-19T04:21:51.407Z,997.6
2023-02-19T04:22:53.207Z,997.6
2023-02-19T04:23:54.191Z,997.5
2023-02-19T04:24:55.107Z,997.5
2023-02-19T04:25:56.129Z,997.5
2023-02-19T04:26:57.166Z,997.5
2023-02-19T04:27:58.150Z,997.6
2023-02-19T04:28:59.113Z,997.6
2023-02-19T04:30:00.188Z,997.5
2023-02-19T04:31:01.138Z,996.9
2023-02-19T04:32:02.234Z,997.4
2023-02-19T04:33:03.142Z,997.5
2023-02-19T04:34:04.183Z,997.6
2023-02-19T04:35:05.160Z,997.6
2023-02-19T04:36:06.229Z,997.5
2023-02-19T04:37:07.285Z,997.6
2023-02-19T04:38:09.200Z,997.6
2023-02-19T04:39:10.161Z,997.6
2023-02-19T04:40:11.224Z,997.5
2023-02-19T04:41:12.430Z,997.6
2023-02-19T04:42:13.128Z,997.5
2023-02-19T04:43:14.367Z,997.6
2023-02-19T04:44:15.182Z,997.6
2023-02-19T04:45:16.379Z,997.6
2023-02-19T04:46:18.231Z,997.6
2023-02-19T04:47:19.218Z,997.6
2023-02-19T04:48:20.194Z,997.5
2023-02-19T04:49:21.188Z,997.5
2023-02-19T04:50:22.160Z,997.5
2023-02-19T04:51:23.218Z,997.4
2023-02-19T04:52:24.733Z,997.4
2023-02-19T04:53:26.114Z,997.4
2023-02-19T04:54:27.239Z,997.4
2023-02-19T04:55:28.143Z,997.4
2023-02-19T04:56:30.861Z,997.5
2023-02-19T04:57:34.200Z,997.4
2023-02-19T04:58:35.179Z,997.4
2023-02-19T04:59:36.220Z,997.4
2023-02-19T05:00:37.318Z,997.4
2023-02-19T05:01:40.135Z,997.4
2023-02-19T05:02:47.082Z,997.3
2023-02-19T05:03:57.479Z,997.3
2023-02-19T05:05:07.459Z,997.3
2023-02-19T05:06:12.319Z,997.3
2023-02-19T05:07:13.181Z,997.3
2023-02-19T05:08:14.238Z,997.3
2023-02-19T05:09:15.243Z,997.3
2023-02-19T05:10:16.165Z,997.3
2023-02-19T05:11:17.213Z,997.3
2023-02-19T05:12:18.178Z,997.3
2023-02-19T05:13:19.225Z,997.3
2023-02-19T05:14:20.180Z,997.2
2023-02-19T05:15:21.163Z,997.3
2023-02-19T05:16:22.179Z,997.3
2023-02-19T05:17:23.201Z,997.3
2023-02-19T05:18:24.223Z,997.3
2023-02-19T05:19:26.172Z,997.2
2023-02-19T05:20:27.146Z,997.2
2023-02-19T05:21:28.224Z,997.2
2023-02-19T05:22:29.199Z,997.3
2023-02-19T05:23:30.198Z,997.2
2023-02-19T05:24:31.319Z,997.2
2023-02-19T05:25:32.980Z,997.2
2023-02-19T05:26:35.225Z,997.3
2023-02-19T05:27:37.204Z,997.3
2023-02-19T05:28:39.713Z,997.3
2023-02-19T05:29:41.160Z,997.2
2023-02-19T05:30:42.181Z,997.2
2023-02-19T05:31:43.368Z,997.2
2023-02-19T05:32:44.214Z,997.1
2023-02-19T05:33:45.222Z,997.1
2023-02-19T05:34:46.188Z,997.1
2023-02-19T05:35:47.159Z,997.1
2023-02-19T05:36:48.179Z,997.1
2023-02-19T05:37:49.219Z,997.1
2023-02-19T05:38:50.207Z,997.1
2023-02-19T05:39:51.199Z,997.1
2023-02-19T05:40:52.179Z,997.1
2023-02-19T05:41:53.166Z,997
2023-02-19T05:42:54.199Z,997.1
2023-02-19T05:43:55.206Z,997.1
2023-02-19T05:44:56.180Z,997.1
2023-02-19T05:45:57.139Z,997.1
2023-02-19T05:46:58.221Z,997.1
2023-02-19T05:47:59.158Z,997.1
2023-02-19T05:49:00.184Z,997.2
2023-02-19T05:50:01.184Z,997.1
2023-02-19T05:51:02.242Z,997.2
2023-02-19T05:52:03.260Z,997.1
2023-02-19T05:53:04.348Z,997.1
2023-02-19T05:54:06.238Z,997.1
2023-02-19T05:55:07.203Z,997.1
2023-02-19T05:56:08.207Z,997.1
2023-02-19T05:57:09.157Z,997.1
2023-02-19T05:58:10.242Z,997.1
2023-02-19T05:59:11.199Z,997.1
2023-02-19T06:00:12.202Z,997
2023-02-19T06:01:13.123Z,997.1
2023-02-19T06:02:14.158Z,997.1
2023-02-19T06:03:15.138Z,997.1
2023-02-19T06:04:16.304Z,997.1
2023-02-19T06:05:17.179Z,997.1
2023-02-19T06:06:18.217Z,997.1
2023-02-19T06:07:19.212Z,997.1
2023-02-19T06:08:20.198Z,997.1
2023-02-19T06:09:21.100Z,997.1
2023-02-19T06:10:22.187Z,997.1
2023-02-19T06:11:23.188Z,997.1
2023-02-19T06:12:24.247Z,997.1
2023-02-19T06:13:25.207Z,997.1
2023-02-19T06:14:26.138Z,997.1
2023-02-19T06:15:27.289Z,997.1
2023-02-19T06:16:28.248Z,997.1
2023-02-19T06:17:29.202Z,997.2
2023-02-19T06:18:30.218Z,997.2
2023-02-19T06:19:31.236Z,997.2
2023-02-19T06:20:32.240Z,997.3
2023-02-19T06:21:33.240Z,997.3
2023-02-19T06:22:35.195Z,997.3
2023-02-19T06:23:36.178Z,997.2
2023-02-19T06:24:37.182Z,997.2
2023-02-19T06:25:38.238Z,997.3
2023-02-19T06:26:39.189Z,997.3
2023-02-19T06:27:40.224Z,997.3
2023-02-19T06:28:41.216Z,997.4
2023-02-19T06:29:42.228Z,997.4
2023-02-19T06:30:43.183Z,997.3
2023-02-19T06:31:44.322Z,997.3
2023-02-19T06:32:45.181Z,997.3
2023-02-19T06:33:46.221Z,997.2
2023-02-19T06:34:47.207Z,997.3
2023-02-19T06:35:48.191Z,997.3
2023-02-19T06:36:49.247Z,997.3
2023-02-19T06:37:50.846Z,997.4
2023-02-19T06:38:55.003Z,997.4
2023-02-19T06:39:58.265Z,997.4
2023-02-19T06:40:59.210Z,997.4
2023-02-19T06:42:00.159Z,997.4
2023-02-19T06:43:01.304Z,997.4
2023-02-19T06:44:02.194Z,997.3
2023-02-19T06:45:03.304Z,997.3
2023-02-19T06:46:06.404Z,997.3
2023-02-19T06:47:11.906Z,997.4
2023-02-19T06:48:20.715Z,997.4
2023-02-19T06:49:25.231Z,997.4
2023-02-19T06:50:30.543Z,997.3
2023-02-19T06:51:37.249Z,997.3
2023-02-19T06:52:42.881Z,997.4
2023-02-19T06:53:49.507Z,997.5
2023-02-19T06:54:53.948Z,997.4
2023-02-19T06:56:01.650Z,997.4
2023-02-19T06:57:06.487Z,997.4
2023-02-19T06:58:12.411Z,997.4
2023-02-19T06:59:16.508Z,997.4
2023-02-19T07:00:20.269Z,997.5
2023-02-19T07:01:25.106Z,997.5
2023-02-19T07:02:28.387Z,997.5
2023-02-19T07:03:30.442Z,997.5
2023-02-19T07:04:32.666Z,997.6
2023-02-19T07:05:34.734Z,997.7
2023-02-19T07:06:37.324Z,997.7
2023-02-19T07:07:39.165Z,997.7
2023-02-19T07:08:40.791Z,997.7
2023-02-19T07:09:44.269Z,997.7
2023-02-19T07:10:46.269Z,997.8
2023-02-19T07:11:47.181Z,997.8
2023-02-19T07:12:48.176Z,997.8
2023-02-19T07:13:49.474Z,997.9
2023-02-19T07:14:52.693Z,997.9
2023-02-19T07:15:54.460Z,998
2023-02-19T07:17:00.492Z,998
2023-02-19T07:18:05.799Z,997.9
2023-02-19T07:19:09.355Z,998
2023-02-19T07:20:10.339Z,997.9
2023-02-19T07:21:11.581Z,998
2023-02-19T07:22:12.158Z,998
2023-02-19T07:23:13.198Z,998
2023-02-19T07:24:18.019Z,998.1
2023-02-19T07:25:20.335Z,998.1
2023-02-19T07:26:21.339Z,998.1
2023-02-19T07:27:29.233Z,998.2
2023-02-19T07:28:35.199Z,998.2
2023-02-19T07:29:39.719Z,998.1
2023-02-19T07:30:45.695Z,998.2
2023-02-19T07:31:50.694Z,998.1
2023-02-19T07:32:58.140Z,998.2
2023-02-19T07:34:08.697Z,998.3
2023-02-19T07:35:14.238Z,998.3
2023-02-19T07:36:15.698Z,998.3
2023-02-19T07:37:17.579Z,998.3
2023-02-19T07:38:20.328Z,998.3
2023-02-19T07:39:23.580Z,998.3
2023-02-19T07:40:25.616Z,998
2023-02-19T07:41:27.482Z,998.2
2023-02-19T07:42:29.204Z,998.3
2023-02-19T07:43:31.096Z,998.3
2023-02-19T07:44:33.468Z,998.4
2023-02-19T07:45:35.406Z,998.4
2023-02-19T07:46:36.508Z,998.5
2023-02-19T07:47:41.204Z,998.5
2023-02-19T07:48:44.266Z,998.5
2023-02-19T07:49:47.251Z,998.6
2023-02-19T07:50:49.253Z,998.6
2023-02-19T07:51:52.563Z,998.6
2023-02-19T07:52:56.424Z,998.6
2023-02-19T07:53:58.224Z,998.7
2023-02-19T07:55:00.348Z,998.7
2023-02-19T07:56:02.557Z,998.7
2023-02-19T07:57:04.555Z,998.7
2023-02-19T07:58:06.427Z,998.7
2023-02-19T07:59:09.001Z,998.8
2023-02-19T08:00:12.393Z,998.8
2023-02-19T08:01:15.486Z,998.9
2023-02-19T08:02:17.555Z,998.8
2023-02-19T08:03:18.920Z,998.8
2023-02-19T08:04:21.212Z,998.8
2023-02-19T08:05:22.348Z,998.8
2023-02-19T08:06:24.703Z,998.9
2023-02-19T08:07:26.917Z,998.9
2023-02-19T08:08:30.798Z,998.9
2023-02-19T08:09:36.814Z,998.9
2023-02-19T08:10:41.324Z,999
2023-02-19T08:11:44.064Z,998.9
2023-02-19T08:12:47.405Z,999
2023-02-19T08:13:49.448Z,998.9
2023-02-19T08:14:52.087Z,998.9
2023-02-19T08:15:57.738Z,999
2023-02-19T08:16:57.181Z,999
2023-02-19T08:18:00.904Z,999.1
2023-02-19T08:19:04.724Z,999.1
2023-02-19T08:20:08.559Z,999.1
2023-02-19T08:21:12.472Z,999.1
2023-02-19T08:22:14.283Z,999.2
2023-02-19T08:23:16.772Z,999.1
2023-02-19T08:24:20.122Z,999.1
2023-02-19T08:25:23.175Z,999.2
2023-02-19T08:26:25.422Z,999.2
2023-02-19T08:27:28.654Z,999.1
2023-02-19T08:28:31.947Z,999.2
2023-02-19T08:29:33.235Z,999.2
2023-02-19T08:30:34.600Z,999.2
2023-02-19T08:31:37.052Z,999.2
2023-02-19T08:32:38.484Z,999.2
2023-02-19T08:33:40.632Z,999.2
2023-02-19T08:34:42.211Z,999.2
2023-02-19T08:35:44.333Z,999.3
2023-02-19T08:36:46.661Z,999.3
2023-02-19T08:37:51.021Z,999.3
2023-02-19T08:38:52.264Z,999.3
2023-02-19T08:39:54.455Z,999.3
2023-02-19T08:40:57.908Z,999.3
2023-02-19T08:42:02.256Z,999.3
2023-02-19T08:43:05.922Z,999.3
2023-02-19T08:44:09.223Z,999.4
2023-02-19T08:45:11.838Z,999.4
2023-02-19T08:46:14.269Z,999.4
2023-02-19T08:47:16.467Z,999.5
2023-02-19T08:48:19.266Z,999.4
2023-02-19T08:49:21.240Z,999.5
2023-02-19T08:50:23.660Z,999.5
2023-02-19T08:51:27.280Z,999.5
2023-02-19T08:52:29.601Z,999.5
2023-02-19T08:53:34.488Z,999.5
2023-02-19T08:54:37.829Z,999.5
2023-02-19T08:55:41.000Z,999.5
2023-02-19T08:56:44.491Z,999.6
2023-02-19T08:57:48.648Z,999.7
2023-02-19T08:58:50.116Z,999.6
2023-02-19T08:59:52.608Z,999.7
2023-02-19T09:00:56.141Z,999.7
2023-02-19T09:01:59.593Z,999.7
2023-02-19T09:03:01.941Z,999.7
2023-02-19T09:04:06.248Z,999.8
2023-02-19T09:05:10.197Z,999.8
2023-02-19T09:06:14.874Z,999.8
2023-02-19T09:07:17.280Z,999.8
2023-02-19T09:08:19.798Z,999.8
2023-02-19T09:09:23.239Z,999.9
2023-02-19T09:10:27.423Z,999.9
2023-02-19T09:11:30.941Z,999.9
2023-02-19T09:12:34.161Z,999.6
2023-02-19T09:13:36.707Z,999.8
2023-02-19T09:14:40.478Z,999.9
2023-02-19T09:15:44.009Z,999.8
2023-02-19T09:16:47.071Z,999.9
2023-02-19T09:17:51.106Z,999.9
2023-02-19T09:18:53.838Z,999.9
2023-02-19T09:19:57.404Z,1000
2023-02-19T09:20:59.628Z,1000
2023-02-19T09:22:01.880Z,1000
2023-02-19T09:23:05.199Z,1000
2023-02-19T09:24:11.163Z,1000
2023-02-19T09:25:15.280Z,1000
2023-02-19T09:26:20.121Z,1000
2023-02-19T09:27:24.981Z,1000.1
2023-02-19T09:28:27.895Z,1000.1
2023-02-19T09:29:30.223Z,1000.1
2023-02-19T09:30:32.225Z,1000.1
2023-02-19T09:31:35.518Z,1000.1
2023-02-19T09:32:38.927Z,1000.1
2023-02-19T09:33:43.003Z,1000.2
2023-02-19T09:34:46.364Z,1000.1
2023-02-19T09:35:49.266Z,1000.1
2023-02-19T09:36:52.366Z,1000.1
2023-02-19T09:37:54.210Z,1000.1
2023-02-19T09:38:55.332Z,1000.1
2023-02-19T09:39:57.051Z,1000.1
2023-02-19T09:41:00.162Z,1000.1
2023-02-19T09:42:04.895Z,1000.1
2023-02-19T09:43:07.278Z,1000.1
2023-02-19T09:44:08.943Z,1000.2
2023-02-19T09:45:11.309Z,1000.2
2023-02-19T09:46:12.894Z,1000.2
2023-02-19T09:47:15.306Z,1000.2
2023-02-19T09:48:17.543Z,1000.3
2023-02-19T09:49:20.961Z,1000.2
2023-02-19T09:50:24.285Z,1000.3
2023-02-19T09:51:27.706Z,1000.3
2023-02-19T09:52:31.606Z,1000.3
2023-02-19T09:53:33.984Z,1000.3
2023-02-19T09:54:35.342Z,1000.3
2023-02-19T09:55:37.948Z,1000.3
2023-02-19T09:56:41.462Z,1000.4
2023-02-19T09:57:44.780Z,1000.4
2023-02-19T09:58:47.920Z,1000.4
2023-02-19T09:59:52.600Z,1000.4
2023-02-19T10:00:56.797Z,1000.4
2023-02-19T10:01:58.273Z,1000.4
2023-02-19T10:03:00.130Z,1000.4
2023-02-19T10:04:03.301Z,1000.5
2023-02-19T10:05:06.223Z,1000.5
2023-02-19T10:06:11.330Z,1000.6
2023-02-19T10:07:10.901Z,1000.6
2023-02-19T10:08:17.180Z,1000.6
2023-02-19T10:09:19.707Z,1000.6
2023-02-19T10:10:22.750Z,1000.6
2023-02-19T10:11:24.660Z,1000.7
2023-02-19T10:12:27.313Z,1000.7
2023-02-19T10:13:28.745Z,1000.7
2023-02-19T10:14:31.236Z,1000.8
2023-02-19T10:15:33.574Z,1000.8
2023-02-19T10:16:37.103Z,1000.8
2023-02-19T10:17:40.321Z,1000.8
2023-02-19T10:18:42.880Z,1000.8
2023-02-19T10:19:45.331Z,1000.9
2023-02-19T10:20:48.882Z,1000.9
2023-02-19T10:21:52.262Z,1000.9
2023-02-19T10:22:55.878Z,1000.9
2023-02-19T10:23:58.359Z,1001
2023-02-19T10:24:59.818Z,1001
2023-02-19T10:26:02.438Z,1001
2023-02-19T10:27:05.019Z,1000.9
2023-02-19T10:28:07.414Z,1001
2023-02-19T10:29:10.283Z,1001
2023-02-19T10:30:15.345Z,1001
2023-02-19T10:31:20.618Z,1001
2023-02-19T10:32:23.403Z,1001.1
2023-02-19T10:33:26.561Z,1001
2023-02-19T10:34:30.345Z,1001.1
2023-02-19T10:35:36.303Z,1001.1
2023-02-19T10:36:39.399Z,1001
2023-02-19T10:37:41.040Z,1001.1
2023-02-19T10:38:44.830Z,1001.1
2023-02-19T10:39:47.630Z,1001.2
2023-02-19T10:40:49.969Z,1001.2
2023-02-19T10:41:52.399Z,1001.2
2023-02-19T10:42:56.304Z,1001.3
2023-02-19T10:43:58.397Z,1001.3
2023-02-19T10:44:59.639Z,1001.3
2023-02-19T10:46:01.423Z,1001.3
2023-02-19T10:47:03.122Z,1001.2
2023-02-19T10:48:05.788Z,1001.2
2023-02-19T10:49:09.609Z,1001.3
2023-02-19T10:50:12.134Z,1001.2
2023-02-19T10:51:14.905Z,1001.3
2023-02-19T10:52:16.701Z,1001.2
2023-02-19T10:53:20.049Z,1001.2
2023-02-19T10:54:22.113Z,1001.2
2023-02-19T10:55:28.227Z,1001.3
2023-02-19T10:56:31.724Z,1001.3
2023-02-19T10:57:36.540Z,1001.4
2023-02-19T10:58:41.220Z,1001.4
2023-02-19T10:59:47.265Z,1001.4
2023-02-19T11:00:52.530Z,1001.4
2023-02-19T11:01:55.039Z,1001.5
2023-02-19T11:02:59.659Z,1001.4
2023-02-19T11:04:02.506Z,1001.5
2023-02-19T11:05:10.970Z,1001.5
2023-02-19T11:06:14.171Z,1001.4
2023-02-19T11:07:18.230Z,1001.4
2023-02-19T11:08:20.912Z,1001.5
2023-02-19T11:09:23.165Z,1001.5
2023-02-19T11:10:27.636Z,1001.5
2023-02-19T11:11:31.347Z,1001.5
2023-02-19T11:12:34.679Z,1001.6
2023-02-19T11:13:40.395Z,1001.6
2023-02-19T11:14:43.558Z,1001.5
2023-02-19T11:15:47.111Z,1001.6
2023-02-19T11:16:49.250Z,1001.6
2023-02-19T11:17:51.400Z,1001.6
2023-02-19T11:18:55.930Z,1001.6
2023-02-19T11:19:56.078Z,1001.6
2023-02-19T11:20:57.997Z,1001.7
2023-02-19T11:22:00.269Z,1001.6
2023-02-19T11:23:04.141Z,1001.7
2023-02-19T11:24:06.168Z,1001.6
2023-02-19T11:25:07.855Z,1001.7
2023-02-19T11:26:10.038Z,1001.6
2023-02-19T11:27:12.741Z,1001.7
2023-02-19T11:28:16.158Z,1001.7
2023-02-19T11:29:20.582Z,1001.6
2023-02-19T11:30:23.410Z,1001.7
2023-02-19T11:31:25.693Z,1001.7
2023-02-19T11:32:28.797Z,1001.6
2023-02-19T11:33:31.518Z,1001.6
2023-02-19T11:34:35.022Z,1001.6
2023-02-19T11:35:39.299Z,1001.6
2023-02-19T11:36:41.923Z,1001.7
2023-02-19T11:37:46.024Z,1001.6
2023-02-19T11:38:49.303Z,1001.6
2023-02-19T11:39:52.162Z,1001.6
2023-02-19T11:40:54.634Z,1001.6
2023-02-19T11:41:57.732Z,1001.6
2023-02-19T11:43:01.407Z,1001.5
2023-02-19T11:44:04.763Z,1001.6
2023-02-19T11:45:09.843Z,1001.6
2023-02-19T11:46:14.333Z,1001.6
2023-02-19T11:47:16.991Z,1001.5
2023-02-19T11:48:21.098Z,1001.6
2023-02-19T11:49:23.264Z,1001.6
2023-02-19T11:50:26.353Z,1001.6
2023-02-19T11:51:28.784Z,1001.6
2023-02-19T11:52:32.306Z,1001.5
2023-02-19T11:53:39.664Z,1001.6
2023-02-19T11:54:42.707Z,1001.5
2023-02-19T11:55:44.717Z,1001.6
2023-02-19T11:56:47.686Z,1001.6
2023-02-19T11:57:51.346Z,1001.5
2023-02-19T11:58:54.008Z,1001.6
2023-02-19T11:59:55.330Z,1001.6
2023-02-19T12:00:57.770Z,1001.5
2023-02-19T12:02:00.681Z,1001.6
2023-02-19T12:03:04.582Z,1001.7
2023-02-19T12:04:07.801Z,1001.7
2023-02-19T12:05:10.416Z,1001.7
2023-02-19T12:06:13.051Z,1001.8
2023-02-19T12:07:17.012Z,1001.8
2023-02-19T12:08:19.375Z,1001.8
2023-02-19T12:09:22.183Z,1001.9
2023-02-19T12:10:24.461Z,1001.8
2023-02-19T12:11:26.481Z,1001.8
2023-02-19T12:12:29.213Z,1001.9
2023-02-19T12:13:32.881Z,1001.8
2023-02-19T12:14:34.471Z,1001.7
2023-02-19T12:15:36.443Z,1001.8
2023-02-19T12:16:39.451Z,1001.9
2023-02-19T12:17:41.512Z,1001.7
2023-02-19T12:18:46.168Z,1001.7
2023-02-19T12:19:49.415Z,1001.8
2023-02-19T12:20:50.371Z,1001.9
2023-02-19T12:21:51.392Z,1001.9
2023-02-19T12:22:54.507Z,1002
2023-02-19T12:23:56.443Z,1001.9
2023-02-19T12:24:58.688Z,1002
2023-02-19T12:26:08.412Z,1002
2023-02-19T12:27:11.985Z,1002
2023-02-19T12:28:15.421Z,1002.1
2023-02-19T12:29:16.479Z,1002.1
2023-02-19T12:30:17.466Z,1002.1
2023-02-19T12:31:18.450Z,1002.1
2023-02-19T12:32:19.486Z,1002.1
2023-02-19T12:33:21.439Z,1002.2
2023-02-19T12:34:22.680Z,1002.2
2023-02-19T12:35:25.860Z,1002.2
2023-02-19T12:36:28.381Z,1002.1
2023-02-19T12:37:30.478Z,1002.1
2023-02-19T12:38:33.526Z,1002.2
2023-02-19T12:39:36.258Z,1002.2
2023-02-19T12:40:38.399Z,1002.2
2023-02-19T12:41:39.421Z,1002.3
2023-02-19T12:42:40.668Z,1002.3
2023-02-19T12:43:42.400Z,1002.3
2023-02-19T12:44:43.460Z,1002.3
2023-02-19T12:45:46.998Z,1002.3
2023-02-19T12:46:51.997Z,1002.3
2023-02-19T12:47:57.377Z,1002.3
2023-02-19T12:49:01.102Z,1002.3
2023-02-19T12:50:07.627Z,1002.3
2023-02-19T12:51:11.451Z,1002.3
2023-02-19T12:52:15.940Z,1002.3
2023-02-19T12:53:20.811Z,1002.4
2023-02-19T12:54:23.504Z,1002.4
2023-02-19T12:55:26.747Z,1002.4
2023-02-19T12:56:28.295Z,1002.5
2023-02-19T12:57:29.359Z,1002.5
2023-02-19T12:58:30.444Z,1002.5
2023-02-19T12:59:35.307Z,1002.5
2023-02-19T13:00:40.407Z,1002.6
2023-02-19T13:01:43.397Z,1002.6
2023-02-19T13:02:44.604Z,1002.6
2023-02-19T13:03:47.006Z,1002.7
2023-02-19T13:04:49.487Z,1002.6
2023-02-19T13:05:50.386Z,1002.7
2023-02-19T13:06:52.164Z,1002.7
2023-02-19T13:07:55.185Z,1002.7
2023-02-19T13:09:06.194Z,1002.7
2023-02-19T13:10:01.445Z,1002.7
2023-02-19T13:11:05.605Z,1002.7
2023-02-19T13:12:09.545Z,1002.7
2023-02-19T13:13:13.345Z,1002.8
2023-02-19T13:14:21.798Z,1002.7
2023-02-19T13:15:24.865Z,1002.7
2023-02-19T13:16:27.538Z,1002.8
2023-02-19T13:17:30.955Z,1002.7
2023-02-19T13:18:33.471Z,1002.7
2023-02-19T13:19:36.193Z,1002.7
2023-02-19T13:20:40.309Z,1002.7